ROMMA est une association bénévole à but non lucratif. Votre soutien est indispensable : ADHERER à ROMMA ou FAIRE un DON

Taninges - (74, Haute-Savoie)

Vallée du Giffre (635 m)   Longitude: 06° 35' 38" E   Latitude: 46° 06' 21" N Station romma n°98
 

Détail journalier du     <<     >>

Température Precipitation Humidité Pression Vent Dir Rafale Dir. rafale Ensol.
Heure (°C) (mm) (%) (hPa) (km/h) (km/h) (min)
01:00 -2.1094101603NO0
02:00 -2.3094101602NO0
03:00 -2.3094101502NO0
04:00 -2.509310141NNE3N0
05:00 -2.7091101402NNE0
06:00 -2.708810133ESE11ESE0
07:00 -4.008910142O6E0
08:00 -3.709210141SE5SO0
09:00 -3.708910142ESE5ESE0
10:00 -3.108610132SSE6ENE0
11:00 1.8069101102SSE55
12:00 0.906610101SSE11OSO60
13:00 1.306810095OSO11SO60
14:00 1.706310073SO8SE60
15:00 3.205810061SE6ESE60
16:00 2.306410052O8SO60
17:00 -0.607210052SE6O20
18:00 -3.108110051ESE5SE0
19:00 -3.908710051S6SE0
20:00 -4.208210043SE10SE0
21:00 -3.708610043O10O0
22:00 -5.308810042ENE6E0
23:00 -6.608910031SSO5ESE0
minuit -6.409110031O5SE0

Graphique du 22-01-2019

 

Serveur OMMA